createdAt,value
2019-05-03T00:00:27.043Z,998.96
2019-05-03T00:01:27.029Z,998.99
2019-05-03T00:02:27.025Z,998.99
2019-05-03T00:03:27.007Z,998.95
2019-05-03T00:04:27.008Z,998.91
2019-05-03T00:05:26.987Z,999.00
2019-05-03T00:06:26.982Z,999.05
2019-05-03T00:07:26.962Z,998.96
2019-05-03T00:08:26.950Z,999.02
2019-05-03T00:09:26.941Z,998.95
2019-05-03T00:10:26.935Z,998.96
2019-05-03T00:11:26.943Z,998.98
2019-05-03T00:12:26.913Z,998.94
2019-05-03T00:13:26.896Z,998.93
2019-05-03T00:14:26.887Z,998.92
2019-05-03T00:15:26.884Z,998.94
2019-05-03T00:16:26.862Z,998.97
2019-05-03T00:17:26.868Z,998.91
2019-05-03T00:18:26.844Z,998.95
2019-05-03T00:19:26.851Z,998.89
2019-05-03T00:20:26.834Z,998.92
2019-05-03T00:21:26.810Z,999.06
2019-05-03T00:22:26.801Z,999.10
2019-05-03T00:23:26.804Z,999.12
2019-05-03T00:24:26.785Z,999.11
2019-05-03T00:25:26.766Z,999.05
2019-05-03T00:26:26.763Z,999.09
2019-05-03T00:27:26.745Z,999.12
2019-05-03T00:28:26.736Z,999.07
2019-05-03T00:29:26.712Z,999.14
2019-05-03T00:30:26.709Z,999.15
2019-05-03T00:31:26.704Z,999.18
2019-05-03T00:32:26.689Z,999.15
2019-05-03T00:33:26.674Z,999.21
2019-05-03T00:34:26.669Z,999.20
2019-05-03T00:35:26.651Z,999.11
2019-05-03T00:36:26.640Z,999.17
2019-05-03T00:37:26.629Z,999.14
2019-05-03T00:38:26.620Z,999.18
2019-05-03T00:39:26.625Z,999.14
2019-05-03T00:40:26.593Z,999.24
2019-05-03T00:41:26.586Z,999.19
2019-05-03T00:42:26.577Z,999.18
2019-05-03T00:43:26.568Z,999.12
2019-05-03T00:44:26.548Z,999.11
2019-05-03T00:45:26.551Z,999.21
2019-05-03T00:46:26.543Z,999.08
2019-05-03T00:47:26.575Z,999.14
2019-05-03T00:48:26.509Z,999.11
2019-05-03T00:49:26.499Z,999.09
2019-05-03T00:50:26.485Z,999.19
2019-05-03T00:51:26.484Z,999.15
2019-05-03T00:52:26.456Z,999.09
2019-05-03T00:53:26.448Z,999.13
2019-05-03T00:54:26.442Z,999.08
2019-05-03T00:55:26.425Z,999.09
2019-05-03T00:56:26.418Z,999.24
2019-05-03T00:57:26.408Z,999.15
2019-05-03T00:58:26.403Z,999.17
2019-05-03T00:59:26.377Z,999.08
2019-05-03T01:00:26.382Z,999.12
2019-05-03T01:01:26.356Z,999.26
2019-05-03T01:02:26.477Z,999.22
2019-05-03T01:03:26.333Z,999.17
2019-05-03T01:04:26.324Z,999.21
2019-05-03T01:05:26.316Z,999.16
2019-05-03T01:06:26.312Z,999.28
2019-05-03T01:07:26.298Z,999.29
2019-05-03T01:08:26.283Z,999.25
2019-05-03T01:09:26.266Z,999.24
2019-05-03T01:10:26.267Z,999.27
2019-05-03T01:11:26.260Z,999.28
2019-05-03T01:12:26.234Z,999.34
2019-05-03T01:13:26.231Z,999.34
2019-05-03T01:14:26.214Z,999.36
2019-05-03T01:15:26.197Z,999.34
2019-05-03T01:16:26.194Z,999.32
2019-05-03T01:17:26.184Z,999.33
2019-05-03T01:18:26.167Z,999.37
2019-05-03T01:19:26.171Z,999.40
2019-05-03T01:20:26.146Z,999.38
2019-05-03T01:21:26.142Z,999.49
2019-05-03T01:22:26.130Z,999.51
2019-05-03T01:23:26.125Z,999.50
2019-05-03T01:24:26.110Z,999.59
2019-05-03T01:25:32.241Z,999.56
2019-05-03T01:26:27.079Z,999.57
2019-05-03T01:27:26.065Z,999.52
2019-05-03T01:28:26.062Z,999.53
2019-05-03T01:29:26.062Z,999.56
2019-05-03T01:30:26.036Z,999.54
2019-05-03T01:31:26.025Z,999.60
2019-05-03T01:32:26.017Z,999.57
2019-05-03T01:33:26.007Z,999.55
2019-05-03T01:34:25.997Z,999.61
2019-05-03T01:35:25.975Z,999.66
2019-05-03T01:36:25.966Z,999.57
2019-05-03T01:37:25.981Z,999.66
2019-05-03T01:38:25.951Z,999.63
2019-05-03T01:39:25.937Z,999.58
2019-05-03T01:40:25.935Z,999.59
2019-05-03T01:41:25.913Z,999.49
2019-05-03T01:42:25.903Z,999.63
2019-05-03T01:43:25.887Z,999.63
2019-05-03T01:44:25.881Z,999.67
2019-05-03T01:45:25.872Z,999.60
2019-05-03T01:46:25.861Z,999.62
2019-05-03T01:47:25.855Z,999.62
2019-05-03T01:48:25.827Z,999.64
2019-05-03T01:49:25.826Z,999.67
2019-05-03T01:50:25.812Z,999.66
2019-05-03T01:51:25.823Z,999.64
2019-05-03T01:52:25.792Z,999.69
2019-05-03T01:53:25.780Z,999.66
2019-05-03T01:54:25.776Z,999.60
2019-05-03T01:55:25.751Z,999.63
2019-05-03T01:56:25.754Z,999.74
2019-05-03T01:57:25.735Z,999.69
2019-05-03T01:58:25.730Z,999.68
2019-05-03T01:59:25.714Z,999.75
2019-05-03T02:00:25.716Z,999.71
2019-05-03T02:01:25.689Z,999.77
2019-05-03T02:02:25.686Z,999.71
2019-05-03T02:03:25.679Z,999.77
2019-05-03T02:04:25.663Z,999.84
2019-05-03T02:05:25.659Z,999.76
2019-05-03T02:06:25.631Z,999.83
2019-05-03T02:07:25.639Z,999.81
2019-05-03T02:08:25.609Z,999.89
2019-05-03T02:09:25.640Z,999.81
2019-05-03T02:10:25.596Z,999.90
2019-05-03T02:11:25.586Z,999.85
2019-05-03T02:12:25.570Z,999.92
2019-05-03T02:13:25.579Z,999.80
2019-05-03T02:14:25.546Z,999.90
2019-05-03T02:15:25.534Z,999.85
2019-05-03T02:16:25.546Z,999.88
2019-05-03T02:17:25.517Z,999.88
2019-05-03T02:18:25.505Z,999.90
2019-05-03T02:19:25.491Z,999.93
2019-05-03T02:20:25.486Z,999.88
2019-05-03T02:21:25.473Z,999.96
2019-05-03T02:22:25.458Z,999.98
2019-05-03T02:23:25.443Z,999.89
2019-05-03T02:24:25.449Z,999.97
2019-05-03T02:25:25.425Z,1000.06
2019-05-03T02:26:25.413Z,1000.01
2019-05-03T02:27:25.401Z,1000.09
2019-05-03T02:28:25.401Z,1000.08
2019-05-03T02:29:25.379Z,1000.03
2019-05-03T02:30:25.388Z,1000.04
2019-05-03T02:31:25.362Z,1000.07
2019-05-03T02:32:25.348Z,1000.09
2019-05-03T02:33:25.346Z,1000.12
2019-05-03T02:34:25.332Z,1000.12
2019-05-03T02:35:25.326Z,1000.11
2019-05-03T02:36:25.334Z,1000.18
2019-05-03T02:37:25.294Z,1000.15
2019-05-03T02:38:25.286Z,1000.09
2019-05-03T02:39:25.269Z,1000.18
2019-05-03T02:40:25.257Z,1000.12
2019-05-03T02:41:25.248Z,1000.21
2019-05-03T02:42:26.451Z,1000.17
2019-05-03T02:43:26.210Z,1000.17
2019-05-03T02:44:26.627Z,1000.23
2019-05-03T02:45:25.942Z,1000.24
2019-05-03T02:46:25.496Z,1000.27
2019-05-03T02:47:26.560Z,1000.22
2019-05-03T02:48:25.651Z,1000.29
2019-05-03T02:49:25.785Z,1000.23
2019-05-03T02:50:26.013Z,1000.31
2019-05-03T02:51:25.975Z,1000.32
2019-05-03T02:52:25.640Z,1000.27
2019-05-03T02:53:25.838Z,1000.26
2019-05-03T02:54:26.976Z,1000.29
2019-05-03T02:55:26.048Z,1000.33
2019-05-03T02:56:26.044Z,1000.34
2019-05-03T02:57:25.852Z,1000.31
2019-05-03T02:58:25.443Z,1000.34
2019-05-03T02:59:26.349Z,1000.30
2019-05-03T03:00:25.477Z,1000.29
2019-05-03T03:01:26.356Z,1000.31
2019-05-03T03:02:26.365Z,1000.35
2019-05-03T03:03:25.586Z,1000.35
2019-05-03T03:04:25.967Z,1000.33
2019-05-03T03:05:25.399Z,1000.42
2019-05-03T03:06:26.802Z,1000.37
2019-05-03T03:07:25.854Z,1000.38
2019-05-03T03:08:25.242Z,1000.35
2019-05-03T03:09:26.043Z,1000.40
2019-05-03T03:10:26.461Z,1000.38
2019-05-03T03:11:26.141Z,1000.46
2019-05-03T03:12:25.802Z,1000.51
2019-05-03T03:13:25.441Z,1000.44
2019-05-03T03:14:25.631Z,1000.44
2019-05-03T03:15:25.652Z,1000.42
2019-05-03T03:16:25.246Z,1000.38
2019-05-03T03:17:25.457Z,1000.45
2019-05-03T03:18:25.539Z,1000.43
2019-05-03T03:19:26.169Z,1000.46
2019-05-03T03:20:25.347Z,1000.43
2019-05-03T03:21:26.058Z,1000.46
2019-05-03T03:22:25.946Z,1000.48
2019-05-03T03:23:26.239Z,1000.50
2019-05-03T03:24:25.872Z,1000.45
2019-05-03T03:25:25.880Z,1000.53
2019-05-03T03:26:34.437Z,1000.52
2019-05-03T03:27:25.981Z,1000.52
2019-05-03T03:28:25.335Z,1000.51
2019-05-03T03:29:25.478Z,1000.51
2019-05-03T03:30:29.266Z,1000.42
2019-05-03T03:31:28.144Z,1000.50
2019-05-03T03:32:29.118Z,1000.51
2019-05-03T03:33:28.085Z,1000.59
2019-05-03T03:34:28.006Z,1000.55
2019-05-03T03:35:29.225Z,1000.58
2019-05-03T03:36:43.616Z,1000.58
2019-05-03T03:37:26.106Z,1000.67
2019-05-03T03:38:26.063Z,1000.61
2019-05-03T03:39:26.119Z,1000.61
2019-05-03T03:40:25.447Z,1000.67
2019-05-03T03:41:25.010Z,1000.66
2019-05-03T03:42:25.163Z,1000.62
2019-05-03T03:43:25.945Z,1000.71
2019-05-03T03:44:25.734Z,1000.65
2019-05-03T03:45:25.381Z,1000.66
2019-05-03T03:46:25.120Z,1000.67
2019-05-03T03:47:27.314Z,1000.75
2019-05-03T03:48:26.577Z,1000.68
2019-05-03T03:49:26.191Z,1000.75
2019-05-03T03:50:25.880Z,1000.75
2019-05-03T03:51:26.344Z,1000.71
2019-05-03T03:52:25.521Z,1000.78
2019-05-03T03:53:26.360Z,1000.77
2019-05-03T03:54:26.009Z,1000.76
2019-05-03T03:55:26.453Z,1000.73
2019-05-03T03:56:25.555Z,1000.76
2019-05-03T03:57:25.309Z,1000.81
2019-05-03T03:58:27.079Z,1000.78
2019-05-03T03:59:26.692Z,1000.81
2019-05-03T04:00:25.837Z,1000.78
2019-05-03T04:01:26.626Z,1000.83
2019-05-03T04:02:26.545Z,1000.79
2019-05-03T04:03:26.012Z,1000.89
2019-05-03T04:04:26.183Z,1000.81
2019-05-03T04:05:25.374Z,1000.88
2019-05-03T04:06:26.670Z,1000.93
2019-05-03T04:07:26.240Z,1000.85
2019-05-03T04:08:25.211Z,1000.89
2019-05-03T04:09:25.572Z,1000.97
2019-05-03T04:10:26.114Z,1000.91
2019-05-03T04:11:25.958Z,1000.89
2019-05-03T04:12:26.492Z,1000.86
2019-05-03T04:13:25.501Z,1000.88
2019-05-03T04:14:25.402Z,1001.00
2019-05-03T04:15:26.112Z,1000.87
2019-05-03T04:16:25.922Z,1000.95
2019-05-03T04:17:26.108Z,1001.00
2019-05-03T04:18:25.544Z,1001.00
2019-05-03T04:19:25.130Z,1001.10
2019-05-03T04:20:25.633Z,1001.04
2019-05-03T04:21:25.492Z,1001.04
2019-05-03T04:22:25.366Z,1001.09
2019-05-03T04:23:26.323Z,1001.12
2019-05-03T04:24:25.889Z,1001.12
2019-05-03T04:25:26.225Z,1001.12
2019-05-03T04:26:29.469Z,1001.14
2019-05-03T04:27:27.516Z,1001.11
2019-05-03T04:28:25.551Z,1001.12
2019-05-03T04:29:25.397Z,1001.17
2019-05-03T04:30:25.694Z,1001.23
2019-05-03T04:31:26.170Z,1001.20
2019-05-03T04:32:28.119Z,1001.17
2019-05-03T04:33:26.626Z,1001.22
2019-05-03T04:34:26.145Z,1001.21
2019-05-03T04:35:26.521Z,1001.18
2019-05-03T04:36:26.293Z,1001.26
2019-05-03T04:37:26.289Z,1001.25
2019-05-03T04:38:25.684Z,1001.23
2019-05-03T04:39:25.637Z,1001.19
2019-05-03T04:40:25.997Z,1001.26
2019-05-03T04:41:26.765Z,1001.21
2019-05-03T04:42:25.394Z,1001.23
2019-05-03T04:43:26.508Z,1001.29
2019-05-03T04:44:26.019Z,1001.33
2019-05-03T04:45:25.559Z,1001.27
2019-05-03T04:46:25.891Z,1001.38
2019-05-03T04:47:26.207Z,1001.32
2019-05-03T04:48:25.319Z,1001.35
2019-05-03T04:49:26.195Z,1001.39
2019-05-03T04:50:25.524Z,1001.31
2019-05-03T04:51:25.954Z,1001.40
2019-05-03T04:52:25.930Z,1001.37
2019-05-03T04:53:25.883Z,1001.38
2019-05-03T04:54:25.210Z,1001.43
2019-05-03T04:55:26.309Z,1001.41
2019-05-03T04:56:25.906Z,1001.42
2019-05-03T04:57:36.646Z,1001.37
2019-05-03T04:58:25.851Z,1001.47
2019-05-03T04:59:25.510Z,1001.47
2019-05-03T05:00:25.735Z,1001.45
2019-05-03T05:01:25.949Z,1001.49
2019-05-03T05:02:26.292Z,1001.52
2019-05-03T05:03:23.652Z,1001.47
2019-05-03T05:04:25.393Z,1001.47
2019-05-03T05:05:26.164Z,1001.50
2019-05-03T05:06:25.807Z,1001.53
2019-05-03T05:07:26.043Z,1001.47
2019-05-03T05:08:25.315Z,1001.53
2019-05-03T05:09:25.804Z,1001.52
2019-05-03T05:10:26.050Z,1001.48
2019-05-03T05:11:26.094Z,1001.53
2019-05-03T05:12:25.167Z,1001.53
2019-05-03T05:13:25.023Z,1001.60
2019-05-03T05:14:25.678Z,1001.60
2019-05-03T05:15:26.023Z,1001.52
2019-05-03T05:16:25.167Z,1001.53
2019-05-03T05:17:26.094Z,1001.53
2019-05-03T05:18:26.166Z,1001.60
2019-05-03T05:19:25.316Z,1001.54
2019-05-03T05:20:24.806Z,1001.66
2019-05-03T05:21:25.244Z,1001.61
2019-05-03T05:22:24.699Z,1001.63
2019-05-03T05:23:25.124Z,1001.51
2019-05-03T05:24:25.398Z,1001.62
2019-05-03T05:25:25.104Z,1001.64
2019-05-03T05:26:24.851Z,1001.68
2019-05-03T05:27:25.413Z,1001.73
2019-05-03T05:28:25.005Z,1001.68
2019-05-03T05:29:25.245Z,1001.71
2019-05-03T05:30:25.138Z,1001.71
2019-05-03T05:31:25.324Z,1001.77
2019-05-03T05:32:24.739Z,1001.72
2019-05-03T05:33:25.228Z,1001.76
2019-05-03T05:34:24.589Z,1001.82
2019-05-03T05:35:24.822Z,1001.82
2019-05-03T05:36:24.388Z,1001.80
2019-05-03T05:37:24.984Z,1001.80
2019-05-03T05:38:25.321Z,1001.77
2019-05-03T05:39:24.456Z,1001.84
2019-05-03T05:40:24.567Z,1001.90
2019-05-03T05:41:24.480Z,1001.80
2019-05-03T05:42:24.946Z,1001.80
2019-05-03T05:43:25.353Z,1001.86
2019-05-03T05:44:24.745Z,1001.81
2019-05-03T05:45:24.558Z,1001.91
2019-05-03T05:46:24.804Z,1001.92
2019-05-03T05:47:25.306Z,1001.99
2019-05-03T05:48:24.595Z,1001.92
2019-05-03T05:49:23.141Z,1001.97
2019-05-03T05:50:25.236Z,1001.94
2019-05-03T05:51:24.858Z,1001.82
2019-05-03T05:52:24.540Z,1001.94
2019-05-03T05:53:23.096Z,1001.87
2019-05-03T05:54:24.606Z,1001.93
2019-05-03T05:55:25.153Z,1001.86
2019-05-03T05:56:24.962Z,1001.94
2019-05-03T05:57:23.053Z,1001.88
2019-05-03T05:58:25.384Z,1001.86
2019-05-03T05:59:24.770Z,1001.91
2019-05-03T06:00:23.020Z,1001.93
2019-05-03T06:01:24.870Z,1001.94
2019-05-03T06:02:23.000Z,1001.96
2019-05-03T06:03:22.985Z,1002.03
2019-05-03T06:04:24.600Z,1001.97
2019-05-03T06:05:25.040Z,1002.07
2019-05-03T06:06:24.392Z,1001.98
2019-05-03T06:07:24.723Z,1001.97
2019-05-03T06:08:24.982Z,1002.01
2019-05-03T06:09:22.927Z,1002.00
2019-05-03T06:10:24.734Z,1002.05
2019-05-03T06:11:22.898Z,1002.05
2019-05-03T06:12:22.910Z,1001.90
2019-05-03T06:13:22.870Z,1001.97
2019-05-03T06:14:24.516Z,1001.98
2019-05-03T06:15:25.002Z,1002.02
2019-05-03T06:16:24.542Z,1001.99
2019-05-03T06:17:24.517Z,1002.06
2019-05-03T06:18:24.914Z,1002.05
2019-05-03T06:19:22.805Z,1002.06
2019-05-03T06:20:24.534Z,1002.11
2019-05-03T06:21:24.954Z,1002.11
2019-05-03T06:22:22.769Z,1002.10
2019-05-03T06:23:24.673Z,1002.12
2019-05-03T06:24:24.788Z,1002.12
2019-05-03T06:25:26.187Z,1002.17
2019-05-03T06:26:22.726Z,1002.15
2019-05-03T06:27:24.468Z,1002.13
2019-05-03T06:28:25.057Z,1002.19
2019-05-03T06:29:24.663Z,1002.12
2019-05-03T06:30:24.725Z,1002.21
2019-05-03T06:31:22.854Z,1002.15
2019-05-03T06:32:22.661Z,1002.20
2019-05-03T06:33:24.500Z,1002.07
2019-05-03T06:34:22.640Z,1002.13
2019-05-03T06:35:24.342Z,1002.09
2019-05-03T06:36:24.306Z,1002.07
2019-05-03T06:37:22.610Z,1002.17
2019-05-03T06:38:24.276Z,1002.24
2019-05-03T06:39:24.743Z,1002.13
2019-05-03T06:40:22.573Z,1002.22
2019-05-03T06:41:22.565Z,1002.13
2019-05-03T06:42:22.998Z,1002.18
2019-05-03T06:43:24.279Z,1002.16
2019-05-03T06:44:24.798Z,1002.17
2019-05-03T06:45:25.111Z,1002.13
2019-05-03T06:46:23.486Z,1002.09
2019-05-03T06:47:25.342Z,1002.15
2019-05-03T06:48:26.986Z,1002.16
2019-05-03T06:49:25.364Z,1002.24
2019-05-03T06:50:27.574Z,1002.20
2019-05-03T06:51:24.865Z,1002.24
2019-05-03T06:52:25.482Z,1002.26
2019-05-03T06:53:25.289Z,1002.23
2019-05-03T06:54:26.835Z,1002.27
2019-05-03T06:55:24.751Z,1002.26
2019-05-03T06:56:25.035Z,1002.24
2019-05-03T06:57:25.213Z,1002.22
2019-05-03T06:58:31.228Z,1002.27
2019-05-03T06:59:24.984Z,1002.29
2019-05-03T07:00:22.350Z,1002.28
2019-05-03T07:01:22.343Z,1002.32
2019-05-03T07:02:22.325Z,1002.30
2019-05-03T07:03:22.317Z,1002.34
2019-05-03T07:04:24.414Z,1002.27
2019-05-03T07:05:22.297Z,1002.42
2019-05-03T07:06:33.497Z,1002.33
2019-05-03T07:07:26.060Z,1002.44
2019-05-03T07:08:22.255Z,1002.41
2019-05-03T07:09:22.250Z,1002.39
2019-05-03T07:10:22.237Z,1002.37
2019-05-03T07:11:22.220Z,1002.44
2019-05-03T07:12:22.222Z,1002.42
2019-05-03T07:13:22.202Z,1002.52
2019-05-03T07:14:22.192Z,1002.49
2019-05-03T07:15:22.205Z,1002.40
2019-05-03T07:16:22.177Z,1002.38
2019-05-03T07:17:22.153Z,1002.40
2019-05-03T07:18:22.156Z,1002.45
2019-05-03T07:19:22.136Z,1002.43
2019-05-03T07:20:22.121Z,1002.43
2019-05-03T07:21:22.120Z,1002.40
2019-05-03T07:22:22.127Z,1002.44
2019-05-03T07:23:22.183Z,1002.42
2019-05-03T07:24:22.075Z,1002.48
2019-05-03T07:25:22.065Z,1002.37
2019-05-03T07:26:22.063Z,1002.39
2019-05-03T07:27:22.052Z,1002.40
2019-05-03T07:28:22.035Z,1002.40
2019-05-03T07:29:22.018Z,1002.35
2019-05-03T07:30:22.015Z,1002.29
2019-05-03T07:31:22.002Z,1002.33
2019-05-03T07:32:21.990Z,1002.45
2019-05-03T07:33:21.987Z,1002.41
2019-05-03T07:34:21.964Z,1002.34
2019-05-03T07:35:21.959Z,1002.31
2019-05-03T07:36:25.077Z,1002.32
2019-05-03T07:37:24.573Z,1002.36
2019-05-03T07:38:21.926Z,1002.48
2019-05-03T07:39:21.923Z,1002.32
2019-05-03T07:40:21.897Z,1002.34
2019-05-03T07:41:24.457Z,1002.37
2019-05-03T07:42:22.880Z,1002.31
2019-05-03T07:43:21.872Z,1002.40
2019-05-03T07:44:21.857Z,1002.44
2019-05-03T07:45:21.837Z,1002.38
2019-05-03T07:46:21.831Z,1002.36
2019-05-03T07:47:21.834Z,1002.50
2019-05-03T07:48:21.809Z,1002.38
2019-05-03T07:49:21.798Z,1002.34
2019-05-03T07:50:21.804Z,1002.37
2019-05-03T07:51:21.790Z,1002.33
2019-05-03T07:52:21.763Z,1002.37
2019-05-03T07:53:21.756Z,1002.40
2019-05-03T07:54:21.740Z,1002.48
2019-05-03T07:55:21.744Z,1002.40
2019-05-03T07:56:21.720Z,1002.48
2019-05-03T07:57:28.866Z,1002.37
2019-05-03T07:59:06.230Z,1002.34
2019-05-03T08:00:04.981Z,1002.40
2019-05-03T08:01:07.081Z,1002.37
2019-05-03T08:02:05.668Z,1002.43
2019-05-03T08:03:05.014Z,1002.45
2019-05-03T08:04:05.280Z,1002.42
2019-05-03T08:05:05.102Z,1002.41
2019-05-03T08:06:04.805Z,1002.45
2019-05-03T08:07:04.449Z,1002.44
2019-05-03T08:08:04.794Z,1002.40
2019-05-03T08:09:04.843Z,1002.40
2019-05-03T08:10:05.390Z,1002.46
2019-05-03T08:11:05.137Z,1002.39
2019-05-03T08:12:05.066Z,1002.48
2019-05-03T08:13:04.667Z,1002.44
2019-05-03T08:14:04.995Z,1002.48
2019-05-03T08:15:05.262Z,1002.47
2019-05-03T08:16:03.156Z,1002.40
2019-05-03T08:17:05.001Z,1002.36
2019-05-03T08:18:04.813Z,1002.43
2019-05-03T08:19:04.914Z,1002.43
2019-05-03T08:20:05.150Z,1002.40
2019-05-03T08:21:05.157Z,1002.36
2019-05-03T08:22:04.781Z,1002.40
2019-05-03T08:23:05.126Z,1002.50
2019-05-03T08:24:04.585Z,1002.43
2019-05-03T08:25:03.070Z,1002.43
2019-05-03T08:26:05.520Z,1002.44
2019-05-03T08:27:05.116Z,1002.49
2019-05-03T08:28:05.157Z,1002.49
2019-05-03T08:29:15.321Z,1002.43
2019-05-03T08:30:04.680Z,1002.52
2019-05-03T08:31:04.767Z,1002.39
2019-05-03T08:32:04.918Z,1002.51
2019-05-03T08:33:02.997Z,1002.54
2019-05-03T08:34:04.824Z,1002.50
2019-05-03T08:35:04.704Z,1002.52
2019-05-03T08:36:04.852Z,1002.46
2019-05-03T08:37:05.006Z,1002.53
2019-05-03T08:38:04.827Z,1002.56
2019-05-03T08:39:05.356Z,1002.62
2019-05-03T08:40:02.910Z,1002.50
2019-05-03T08:41:02.889Z,1002.42
2019-05-03T08:42:04.818Z,1002.36
2019-05-03T08:43:05.024Z,1002.37
2019-05-03T08:44:02.852Z,1002.41
2019-05-03T08:45:04.555Z,1002.50
2019-05-03T08:46:04.597Z,1002.48
2019-05-03T08:47:02.831Z,1002.42
2019-05-03T08:48:02.823Z,1002.42
2019-05-03T08:49:05.023Z,1002.35
2019-05-03T08:50:02.787Z,1002.44
2019-05-03T08:51:04.529Z,1002.45
2019-05-03T08:52:02.763Z,1002.41
2019-05-03T08:53:04.924Z,1002.45
2019-05-03T08:54:04.653Z,1002.39
2019-05-03T08:55:02.724Z,1002.40
2019-05-03T08:56:02.713Z,1002.45
2019-05-03T08:57:02.711Z,1002.40
2019-05-03T08:58:02.702Z,1002.36
2019-05-03T08:59:04.544Z,1002.38
2019-05-03T09:00:02.670Z,1002.49
2019-05-03T09:01:02.652Z,1002.43
2019-05-03T09:02:03.524Z,1002.49
2019-05-03T09:03:05.232Z,1002.42
2019-05-03T09:04:02.636Z,1002.35
2019-05-03T09:05:02.616Z,1002.44
2019-05-03T09:06:04.512Z,1002.33
2019-05-03T09:07:02.590Z,1002.37
2019-05-03T09:08:02.586Z,1002.44
2019-05-03T09:09:04.554Z,1002.37
2019-05-03T09:10:02.596Z,1002.38
2019-05-03T09:11:02.544Z,1002.51
2019-05-03T09:12:04.576Z,1002.49
2019-05-03T09:13:05.564Z,1002.44
2019-05-03T09:14:04.432Z,1002.50
2019-05-03T09:15:02.494Z,1002.48
2019-05-03T09:16:02.502Z,1002.46
2019-05-03T09:17:04.774Z,1002.49
2019-05-03T09:18:04.645Z,1002.48
2019-05-03T09:19:02.525Z,1002.42
2019-05-03T09:20:02.448Z,1002.47
2019-05-03T09:21:02.432Z,1002.50
2019-05-03T09:22:02.478Z,1002.43
2019-05-03T09:23:02.413Z,1002.40
2019-05-03T09:24:04.557Z,1002.42
2019-05-03T09:25:02.388Z,1002.33
2019-05-03T09:26:04.509Z,1002.39
2019-05-03T09:27:02.399Z,1002.35
2019-05-03T09:28:04.577Z,1002.34
2019-05-03T09:29:02.355Z,1002.31
2019-05-03T09:30:02.329Z,1002.29
2019-05-03T09:31:04.537Z,1002.32
2019-05-03T09:32:02.317Z,1002.41
2019-05-03T09:33:02.295Z,1002.39
2019-05-03T09:34:02.288Z,1002.37
2019-05-03T09:35:02.272Z,1002.48
2019-05-03T09:36:02.287Z,1002.45
2019-05-03T09:37:02.270Z,1002.43
2019-05-03T09:38:02.251Z,1002.50
2019-05-03T09:39:02.233Z,1002.52
2019-05-03T09:40:02.223Z,1002.43
2019-05-03T09:41:02.218Z,1002.44
2019-05-03T09:42:02.203Z,1002.48
2019-05-03T09:43:04.334Z,1002.47
2019-05-03T09:44:02.210Z,1002.41
2019-05-03T09:45:02.162Z,1002.31
2019-05-03T09:46:02.151Z,1002.39
2019-05-03T09:47:02.145Z,1002.25
2019-05-03T09:48:02.131Z,1002.31
2019-05-03T09:49:12.595Z,1002.24
2019-05-03T09:50:04.809Z,1002.29
2019-05-03T09:51:02.112Z,1002.33
2019-05-03T09:52:02.346Z,1002.29
2019-05-03T09:53:02.099Z,1002.30
2019-05-03T09:54:02.072Z,1002.37
2019-05-03T09:55:02.087Z,1002.37
2019-05-03T09:56:02.041Z,1002.34
2019-05-03T09:57:02.032Z,1002.46
2019-05-03T09:58:02.028Z,1002.41
2019-05-03T09:59:02.008Z,1002.51
2019-05-03T10:00:02.025Z,1002.48
2019-05-03T10:01:03.828Z,1002.43
2019-05-03T10:02:01.985Z,1002.47
2019-05-03T10:03:01.965Z,1002.44
2019-05-03T10:04:01.952Z,1002.47
2019-05-03T10:05:01.965Z,1002.44
2019-05-03T10:06:01.970Z,1002.40
2019-05-03T10:07:01.918Z,1002.45
2019-05-03T10:08:01.905Z,1002.37
2019-05-03T10:09:01.898Z,1002.39
2019-05-03T10:10:01.907Z,1002.37
2019-05-03T10:11:01.885Z,1002.45
2019-05-03T10:12:01.879Z,1002.39
2019-05-03T10:13:01.865Z,1002.42
2019-05-03T10:14:01.840Z,1002.39
2019-05-03T10:15:01.882Z,1002.50
2019-05-03T10:16:01.824Z,1002.39
2019-05-03T10:17:01.822Z,1002.29
2019-05-03T10:18:08.007Z,1002.37
2019-05-03T10:19:02.778Z,1002.41
2019-05-03T10:20:01.773Z,1002.37
2019-05-03T10:21:03.088Z,1002.36
2019-05-03T10:22:01.747Z,1002.33
2019-05-03T10:23:01.745Z,1002.30
2019-05-03T10:24:01.723Z,1002.28
2019-05-03T10:25:01.741Z,1002.27
2019-05-03T10:26:01.709Z,1002.45
2019-05-03T10:27:01.695Z,1002.44
2019-05-03T10:28:01.692Z,1002.39
2019-05-03T10:29:01.667Z,1002.41
2019-05-03T10:30:10.486Z,1002.28
2019-05-03T10:31:07.346Z,1002.36
2019-05-03T10:32:02.633Z,1002.28
2019-05-03T10:33:01.624Z,1002.48
2019-05-03T10:34:01.638Z,1002.47
2019-05-03T10:35:01.617Z,1002.43
2019-05-03T10:36:01.603Z,1002.55
2019-05-03T10:37:01.581Z,1002.54
2019-05-03T10:38:01.566Z,1002.42
2019-05-03T10:39:01.553Z,1002.45
2019-05-03T10:40:01.549Z,1002.49
2019-05-03T10:41:01.547Z,1002.43
2019-05-03T10:42:01.520Z,1002.39
2019-05-03T10:43:01.513Z,1002.33
2019-05-03T10:44:01.501Z,1002.38
2019-05-03T10:45:01.509Z,1002.44
2019-05-03T10:46:01.475Z,1002.36
2019-05-03T10:47:01.473Z,1002.41
2019-05-03T10:48:01.458Z,1002.39
2019-05-03T10:49:01.441Z,1002.41
2019-05-03T10:50:01.436Z,1002.42
2019-05-03T10:51:01.434Z,1002.36
2019-05-03T10:52:01.413Z,1002.36
2019-05-03T10:53:01.400Z,1002.43
2019-05-03T10:54:01.386Z,1002.33
2019-05-03T10:55:01.379Z,1002.33
2019-05-03T10:56:01.369Z,1002.24
2019-05-03T10:57:01.364Z,1002.32
2019-05-03T10:58:01.337Z,1002.36
2019-05-03T10:59:01.327Z,1002.31
2019-05-03T11:00:01.322Z,1002.32
2019-05-03T11:01:01.309Z,1002.35
2019-05-03T11:02:01.294Z,1002.54
2019-05-03T11:03:01.287Z,1002.42
2019-05-03T11:04:01.268Z,1002.37
2019-05-03T11:05:01.262Z,1002.38
2019-05-03T11:06:01.254Z,1002.34
2019-05-03T11:07:01.241Z,1002.34
2019-05-03T11:08:01.268Z,1002.41
2019-05-03T11:09:01.218Z,1002.36
2019-05-03T11:10:01.202Z,1002.30
2019-05-03T11:11:01.196Z,1002.36
2019-05-03T11:12:01.192Z,1002.30
2019-05-03T11:13:01.181Z,1002.34
2019-05-03T11:14:01.175Z,1002.41
2019-05-03T11:15:01.149Z,1002.33
2019-05-03T11:16:01.137Z,1002.33
2019-05-03T11:17:01.131Z,1002.30
2019-05-03T11:18:01.119Z,1002.38
2019-05-03T11:19:01.106Z,1002.32
2019-05-03T11:20:01.095Z,1002.36
2019-05-03T11:21:01.078Z,1002.33
2019-05-03T11:22:01.070Z,1002.34
2019-05-03T11:23:01.069Z,1002.29
2019-05-03T11:24:01.057Z,1002.26
2019-05-03T11:25:01.046Z,1002.23
2019-05-03T11:26:01.026Z,1002.18
2019-05-03T11:27:01.018Z,1002.13
2019-05-03T11:28:01.004Z,1002.16
2019-05-03T11:29:01.005Z,1002.18
2019-05-03T11:30:00.986Z,1002.15
2019-05-03T11:31:02.382Z,1002.06
2019-05-03T11:32:00.968Z,1002.16
2019-05-03T11:33:00.953Z,1002.15
2019-05-03T11:34:00.934Z,1002.13
2019-05-03T11:35:00.942Z,1002.09
2019-05-03T11:36:00.931Z,1002.09
2019-05-03T11:37:00.901Z,1002.17
2019-05-03T11:38:00.895Z,1002.10
2019-05-03T11:39:00.878Z,1002.22
2019-05-03T11:40:00.881Z,1002.20
2019-05-03T11:41:00.869Z,1002.21
2019-05-03T11:42:00.850Z,1002.16
2019-05-03T11:43:00.838Z,1002.20
2019-05-03T11:44:00.824Z,1002.25
2019-05-03T11:45:00.816Z,1002.32
2019-05-03T11:46:00.802Z,1002.31
2019-05-03T11:47:00.811Z,1002.21
2019-05-03T11:48:00.789Z,1002.23
2019-05-03T11:49:00.772Z,1002.28
2019-05-03T11:50:00.763Z,1002.27
2019-05-03T11:51:00.749Z,1002.40
2019-05-03T11:52:00.746Z,1002.29
2019-05-03T11:53:00.739Z,1002.30
2019-05-03T11:54:00.717Z,1002.38
2019-05-03T11:55:00.715Z,1002.41
2019-05-03T11:56:00.691Z,1002.33
2019-05-03T11:57:00.689Z,1002.37
2019-05-03T11:58:00.685Z,1002.38
2019-05-03T11:59:00.666Z,1002.40
2019-05-03T12:00:00.655Z,1002.36
2019-05-03T12:01:11.835Z,1002.31
2019-05-03T12:02:01.618Z,1002.31
2019-05-03T12:03:00.620Z,1002.41
2019-05-03T12:04:00.609Z,1002.36
2019-05-03T12:05:00.600Z,1002.34
2019-05-03T12:06:00.583Z,1002.33
2019-05-03T12:07:00.592Z,1002.33
2019-05-03T12:08:00.567Z,1002.25
2019-05-03T12:09:00.543Z,1002.23
2019-05-03T12:10:00.593Z,1002.24
2019-05-03T12:11:01.628Z,1002.26